Time;durP1;ratioP1;P1;durP2;ratioP2;P2;SDS_P1;SDS_P2;PMS_P1;PMS_P2;Temp;Humidity;BMP_temperature;BMP_pressure;BME280_temperature;BME280_humidity;BME280_pressure;Samples;Min_cycle;Max_cycle;Signal;HPM_P1;HPM_P2
2023/09/22 00:00:58;;;;;;;2.28;1.58;;;;;;;16.76;94.74;99610.59;4986261;28;20069;-78
2023/09/22 00:03:23;;;;;;;2.63;1.70;;;;;;;16.73;94.95;99617.47;5002068;28;20145;-76
2023/09/22 00:05:52;;;;;;;;;;;;;;;16.72;95.49;99617.78;4998756;28;20106;-75
2023/09/22 00:08:17;;;;;;;3.05;1.88;;;;;;;16.65;95.89;99635.31;4992818;28;19952;-78
2023/09/22 00:10:46;;;;;;;2.75;1.90;;;;;;;16.64;96.18;99638.38;4975804;28;20511;-77
2023/09/22 00:13:13;;;;;;;3.33;2.30;;;;;;;16.62;96.46;99651.44;4995355;28;20038;-79
2023/09/22 00:15:38;;;;;;;3.30;1.90;;;;;;;16.63;96.11;99642.22;5000257;28;20049;-78
2023/09/22 00:18:04;;;;;;;3.83;2.42;;;;;;;16.62;95.90;99636.00;4973806;28;20034;-74
2023/09/22 00:20:30;;;;;;;3.00;2.10;;;;;;;16.62;96.25;99636.00;4971540;28;20038;-79
2023/09/22 00:22:56;;;;;;;3.17;1.88;;;;;;;16.60;95.83;99649.09;4961252;28;20546;-77
2023/09/22 00:25:24;;;;;;;3.40;2.13;;;;;;;16.59;96.14;99644.78;4998234;28;20696;-77
2023/09/22 00:27:50;;;;;;;4.40;2.20;;;;;;;16.58;96.07;99662.13;4964033;28;20046;-76
2023/09/22 00:30:16;;;;;;;3.47;2.45;;;;;;;16.56;95.77;99653.56;4977797;28;20233;-76
2023/09/22 00:32:41;;;;;;;3.53;2.40;;;;;;;16.56;95.73;99648.16;4982360;28;20092;-74
2023/09/22 00:35:12;;;;;;;5.40;2.90;;;;;;;16.55;95.46;99646.59;4982116;28;20490;-79
2023/09/22 00:37:40;;;;;;;2.47;2.20;;;;;;;16.54;95.84;99634.22;4982238;28;20071;-78
2023/09/22 00:40:08;;;;;;;3.10;2.80;;;;;;;16.53;95.75;99640.75;4985724;28;20046;-79
2023/09/22 00:42:34;;;;;;;3.83;2.95;;;;;;;16.49;96.74;99637.13;4998919;28;20038;-80
2023/09/22 00:44:59;;;;;;;;;;;;;;;16.50;96.97;99633.28;4991688;28;20112;-75
2023/09/22 00:47:25;;;;;;;3.38;2.72;;;;;;;16.47;97.02;99630.50;4981342;28;19914;-74
2023/09/22 00:49:53;;;;;;;5.55;3.22;;;;;;;16.46;96.79;99627.00;4983083;28;20041;-78
2023/09/22 00:52:22;;;;;;;5.00;3.22;;;;;;;16.43;96.30;99618.75;4982873;28;20042;-75
2023/09/22 00:54:49;;;;;;;4.35;3.70;;;;;;;16.43;96.86;99611.44;4977396;28;20072;-75
2023/09/22 00:57:18;;;;;;;5.88;3.85;;;;;;;16.41;96.92;99621.00;4988334;28;20128;-76
2023/09/22 00:59:45;;;;;;;6.07;4.20;;;;;;;16.40;96.78;99622.16;4996142;28;20111;-74
2023/09/22 01:02:11;;;;;;;4.57;4.10;;;;;;;16.39;96.58;99632.13;4980696;28;20046;-77
2023/09/22 01:04:37;;;;;;;5.45;4.20;;;;;;;16.39;96.66;99626.72;4982323;28;20639;-78
2023/09/22 01:07:03;;;;;;;5.47;4.35;;;;;;;16.36;96.87;99627.41;4966177;28;20053;-77
2023/09/22 01:09:29;;;;;;;4.90;4.40;;;;;;;16.34;96.65;99638.56;5007458;23;20062;-71
2023/09/22 01:11:55;;;;;;;9.02;4.95;;;;;;;16.32;96.71;99640.00;5019470;28;20469;-72
2023/09/22 01:14:21;;;;;;;6.53;5.18;;;;;;;16.31;96.72;99643.84;5021591;28;20066;-71
2023/09/22 01:16:47;;;;;;;6.07;4.97;;;;;;;16.27;96.88;99646.44;5022915;28;20026;-72
2023/09/22 01:19:17;;;;;;;6.93;5.60;;;;;;;16.30;96.80;99648.44;5005792;28;20090;-73
2023/09/22 01:21:43;;;;;;;6.70;5.40;;;;;;;16.29;96.05;99651.50;5028212;28;20034;-72
2023/09/22 01:24:11;;;;;;;6.60;5.90;;;;;;;16.28;96.22;99647.22;5022048;28;20098;-72
2023/09/22 01:26:38;;;;;;;5.82;5.18;;;;;;;16.28;96.14;99658.03;4991958;28;20111;-72
2023/09/22 01:29:07;;;;;;;7.63;5.53;;;;;;;16.27;96.26;99662.63;5016097;28;20038;-72
2023/09/22 01:31:33;;;;;;;6.70;5.10;;;;;;;16.29;96.45;99657.69;5022139;28;20128;-72
2023/09/22 01:34:01;;;;;;;5.65;5.10;;;;;;;16.27;96.72;99651.03;5008534;28;20037;-72
2023/09/22 01:36:28;;;;;;;6.40;5.15;;;;;;;16.26;97.25;99679.19;5024759;28;20757;-72
2023/09/22 01:38:54;;;;;;;5.60;5.00;;;;;;;16.24;96.83;99684.09;5018911;28;20036;-71
2023/09/22 01:41:20;;;;;;;7.28;6.15;;;;;;;16.23;96.57;99666.31;5021694;28;20036;-72
2023/09/22 01:43:45;;;;;;;;;;;;;;;16.21;96.98;99663.19;5026100;28;20034;-72
2023/09/22 01:46:11;;;;;;;7.10;5.35;;;;;;;16.10;96.47;99670.91;5025426;28;19948;-72
2023/09/22 01:48:37;;;;;;;6.43;5.60;;;;;;;16.09;96.62;99667.41;5026989;28;20220;-72
2023/09/22 01:51:03;;;;;;;7.05;4.53;;;;;;;16.09;96.92;99663.91;4991127;28;20775;-72
2023/09/22 01:53:29;;;;;;;4.93;4.47;;;;;;;16.08;97.23;99686.66;5009736;28;20034;-72
2023/09/22 01:55:55;;;;;;;;;;;;;;;16.08;97.16;99687.44;5025530;28;20033;-72
2023/09/22 01:58:21;;;;;;;5.43;4.28;;;;;;;16.04;97.10;99686.50;5022689;28;19948;-72
2023/09/22 02:00:48;;;;;;;6.65;4.45;;;;;;;16.03;96.92;99703.84;5012351;28;20514;-72
2023/09/22 02:03:14;;;;;;;5.05;4.55;;;;;;;15.99;96.53;99700.25;5024791;28;20039;-73
2023/09/22 02:05:40;;;;;;;;;;;;;;;15.97;97.20;99701.66;5023692;28;20087;-72
2023/09/22 02:08:08;;;;;;;4.45;3.70;;;;;;;15.93;97.30;99706.97;5022469;28;19917;-72
2023/09/22 02:10:35;;;;;;;3.75;3.20;;;;;;;15.95;97.52;99709.31;5025461;28;20030;-73
2023/09/22 02:13:00;;;;;;;4.07;3.00;;;;;;;15.92;97.56;99705.38;5008884;28;20099;-72
2023/09/22 02:15:26;;;;;;;3.03;2.63;;;;;;;15.88;97.41;99709.84;5025761;28;20685;-72
2023/09/22 02:17:53;;;;;;;3.90;2.65;;;;;;;15.87;96.93;99712.88;5011794;28;20037;-73
2023/09/22 02:20:22;;;;;;;3.42;3.05;;;;;;;15.83;96.72;99724.31;4993834;28;20516;-73
2023/09/22 02:22:50;;;;;;;3.20;2.10;;;;;;;15.82;96.75;99716.56;5008385;28;20048;-72
2023/09/22 02:25:19;;;;;;;3.47;2.83;;;;;;;15.79;96.65;99714.53;5006487;28;20601;-73
2023/09/22 02:27:47;;;;;;;2.20;1.95;;;;;;;15.76;96.44;99712.47;5000148;28;20041;-72
2023/09/22 02:30:14;;;;;;;3.22;2.78;;;;;;;15.71;96.52;99720.75;5031279;28;20051;-72
2023/09/22 02:32:42;;;;;;;3.78;2.40;;;;;;;15.69;96.48;99712.22;5013590;28;20061;-72
2023/09/22 02:35:08;;;;;;;7.00;2.28;;;;;;;15.67;96.73;99725.25;5025345;28;20048;-73
2023/09/22 02:37:35;;;;;;;2.72;1.98;;;;;;;15.65;96.61;99727.50;5030152;28;20382;-73
2023/09/22 02:40:03;;;;;;;4.97;2.15;;;;;;;15.63;96.41;99729.72;5028929;28;20056;-72
2023/09/22 02:42:29;;;;;;;2.67;1.95;;;;;;;15.61;96.27;99729.22;5020300;28;20033;-72
2023/09/22 02:44:55;;;;;;;2.92;1.90;;;;;;;15.54;96.69;99733.22;5030641;28;20030;-73
2023/09/22 02:47:20;;;;;;;;;;;;;;;15.48;96.59;99734.53;5027792;28;20053;-72
2023/09/22 02:49:47;;;;;;;7.07;2.03;;;;;;;15.45;96.44;99729.81;5010288;28;20388;-72
2023/09/22 02:52:13;;;;;;;2.83;2.30;;;;;;;15.41;96.60;99731.56;5028087;28;20044;-72
2023/09/22 02:54:38;;;;;;;2.28;1.77;;;;;;;15.39;96.60;99736.50;5009479;28;20030;-73
2023/09/22 02:57:04;;;;;;;2.15;1.88;;;;;;;15.35;96.55;99749.03;5026736;28;20047;-72
2023/09/22 02:59:31;;;;;;;2.33;1.90;;;;;;;15.33;96.25;99753.19;5010401;28;20097;-73
2023/09/22 03:01:57;;;;;;;2.85;1.88;;;;;;;15.30;96.17;99760.81;5007834;28;20114;-72
2023/09/22 03:04:23;;;;;;;3.47;1.75;;;;;;;15.29;96.38;99750.34;5008761;28;20386;-72
2023/09/22 03:06:48;;;;;;;;;;;;;;;15.26;96.07;99748.31;5022352;28;20033;-72
2023/09/22 03:09:15;;;;;;;3.65;2.28;;;;;;;15.21;96.21;99756.56;5005605;28;19942;-73
2023/09/22 03:11:41;;;;;;;3.15;1.35;;;;;;;15.17;95.84;99756.44;5008646;28;20041;-73
2023/09/22 03:14:07;;;;;;;2.13;1.70;;;;;;;15.16;95.66;99770.22;5020690;28;20505;-74
2023/09/22 03:16:33;;;;;;;1.83;1.50;;;;;;;15.11;95.29;99752.34;4994302;28;20069;-73
2023/09/22 03:18:59;;;;;;;2.58;1.42;;;;;;;15.08;95.50;99761.06;5025727;28;20049;-72
2023/09/22 03:21:26;;;;;;;2.40;1.52;;;;;;;15.03;95.24;99764.72;5009708;28;20041;-73
2023/09/22 03:23:53;;;;;;;2.30;1.60;;;;;;;15.00;95.61;99767.28;5025575;28;20509;-73
2023/09/22 03:26:20;;;;;;;4.28;1.67;;;;;;;14.95;95.55;99770.94;5022396;28;20033;-72
2023/09/22 03:28:49;;;;;;;3.28;1.65;;;;;;;14.92;96.21;99776.97;5024783;28;20451;-72
2023/09/22 03:31:19;;;;;;;2.42;1.85;;;;;;;14.90;95.74;99768.44;4999140;28;20835;-72
2023/09/22 03:33:46;;;;;;;1.80;1.45;;;;;;;14.88;95.62;99765.25;5027923;28;20083;-72
2023/09/22 03:36:13;;;;;;;2.22;1.70;;;;;;;14.85;95.71;99759.72;5015434;28;20052;-72
2023/09/22 03:38:40;;;;;;;1.73;1.33;;;;;;;14.82;95.20;99763.84;5015812;28;20037;-73
2023/09/22 03:41:06;;;;;;;2.25;1.25;;;;;;;14.78;95.32;99749.44;5010225;28;20072;-72
2023/09/22 03:43:33;;;;;;;2.17;1.40;;;;;;;14.75;95.09;99741.97;5037466;28;20060;-72
2023/09/22 03:46:00;;;;;;;1.90;1.40;;;;;;;14.73;95.16;99744.22;5030175;28;20045;-72
2023/09/22 03:48:26;;;;;;;4.65;2.00;;;;;;;14.74;95.67;99751.19;5029245;28;20037;-73
2023/09/22 03:50:52;;;;;;;2.60;1.40;;;;;;;14.72;95.92;99745.31;5010102;28;20106;-72
2023/09/22 03:53:18;;;;;;;2.58;1.70;;;;;;;14.70;96.01;99747.56;5029148;28;20041;-72
2023/09/22 03:55:45;;;;;;;1.80;1.42;;;;;;;14.71;96.00;99747.25;5010167;28;20481;-73
2023/09/22 03:58:11;;;;;;;2.55;1.92;;;;;;;14.69;96.18;99741.34;5007731;28;20048;-72
2023/09/22 04:00:37;;;;;;;;;;;;;;;14.69;96.35;99746.75;4995584;28;20021;-72
2023/09/22 04:03:07;;;;;;;2.47;1.65;;;;;;;14.67;96.07;99745.50;5030183;28;20451;-72
2023/09/22 04:05:34;;;;;;;3.05;1.60;;;;;;;14.67;95.81;99745.50;5025252;28;20041;-73
2023/09/22 04:08:00;;;;;;;3.10;2.05;;;;;;;14.66;96.10;99742.00;5026077;28;20390;-73
2023/09/22 04:10:26;;;;;;;3.13;2.80;;;;;;;14.64;96.33;99755.03;5005768;28;20033;-72
2023/09/22 04:12:51;;;;;;;;;;;;;;;14.65;96.14;99767.38;5024708;28;20040;-72
2023/09/22 04:15:18;;;;;;;3.45;2.63;;;;;;;14.64;96.06;99759.63;5006095;28;19917;-73
2023/09/22 04:17:46;;;;;;;;;;;;;;;14.66;96.60;99760.88;5025362;28;20040;-73
2023/09/22 04:20:12;;;;;;;5.22;2.33;;;;;;;14.65;97.05;99761.19;5030483;28;19996;-73
2023/09/22 04:22:38;;;;;;;2.92;2.55;;;;;;;14.64;97.19;99755.03;5030023;28;20191;-72
2023/09/22 04:25:13;;;;;;;3.55;3.22;;;;;;;14.65;97.21;99745.81;5008461;28;20111;-72
2023/09/22 04:27:54;;;;;;;3.97;3.00;;;;;;;14.65;97.69;99755.81;5029472;28;20040;-72
2023/09/22 04:30:20;;;;;;;6.22;4.45;;;;;;;14.66;97.84;99762.78;5021422;28;20414;-73
2023/09/22 04:32:47;;;;;;;4.68;3.70;;;;;;;14.67;98.01;99775.94;5008365;28;20090;-72
2023/09/22 04:35:13;;;;;;;8.75;7.85;;;;;;;14.71;98.03;99770.69;5021771;28;20061;-73
2023/09/22 04:37:40;;;;;;;;;;;;;;;14.77;98.13;99772.13;5028593;28;20072;-72
2023/09/22 04:40:23;;;;;;;8.30;5.80;;;;;;;14.77;98.17;99753.25;5025099;28;19921;-72
2023/09/22 04:42:53;;;;;;;6.97;5.28;;;;;;;14.79;97.92;99755.63;5025789;28;20253;-73
2023/09/22 04:45:18;;;;;;;8.45;6.10;;;;;;;14.82;97.64;99766.53;5023388;28;20486;-72
2023/09/22 04:47:47;;;;;;;;;;;;;;;14.83;98.10;99765.41;5026790;28;20071;-73
2023/09/22 04:50:17;;;;;;;7.72;5.95;;;;;;;14.79;97.99;99771.78;5025769;28;19921;-73
2023/09/22 04:52:47;;;;;;;8.10;5.53;;;;;;;14.78;98.02;99757.53;5027378;28;20033;-73
2023/09/22 04:55:13;;;;;;;6.68;4.55;;;;;;;14.76;97.80;99757.03;5024146;28;20124;-73
2023/09/22 04:57:40;;;;;;;;;;;;;;;14.72;97.86;99761.50;5021980;28;20154;-73
2023/09/22 05:00:08;;;;;;;5.85;5.18;;;;;;;14.68;97.93;99785.59;5023846;28;20059;-73
2023/09/22 05:02:53;;;;;;;7.43;5.93;;;;;;;14.67;97.94;99792.09;5023740;28;20044;-72
2023/09/22 05:05:19;;;;;;;7.90;6.70;;;;;;;14.67;97.79;99786.69;5026631;28;20120;-72
2023/09/22 05:07:46;;;;;;;9.15;6.40;;;;;;;14.65;97.39;99785.44;5021395;28;20051;-73
2023/09/22 05:10:12;;;;;;;6.28;5.53;;;;;;;14.63;97.15;99780.38;5043871;28;20541;-72
2023/09/22 05:12:37;;;;;;;10.32;6.03;;;;;;;14.63;97.49;99779.56;5034860;28;20584;-72
2023/09/22 05:15:04;;;;;;;;;;;;;;;14.60;97.41;99781.00;5012022;28;20129;-71
2023/09/22 05:17:30;;;;;;;6.70;5.35;;;;;;;14.55;97.47;99789.25;5039073;28;19992;-72
2023/09/22 05:19:55;;;;;;;;;;;;;;;14.54;97.31;99790.38;5028927;28;20148;-73
2023/09/22 05:22:22;;;;;;;6.63;5.57;;;;;;;14.51;97.36;99782.16;5021172;28;20421;-72
2023/09/22 05:24:48;;;;;;;7.90;6.10;;;;;;;14.47;96.79;99782.75;5038135;28;20231;-73
2023/09/22 05:27:14;;;;;;;;;;;;;;;14.45;96.75;99784.19;5027163;28;20490;-73
2023/09/22 05:29:41;;;;;;;7.20;6.05;;;;;;;14.41;96.56;99781.31;5007637;28;19953;-73
2023/09/22 05:32:08;;;;;;;9.32;5.85;;;;;;;14.37;96.50;99787.66;5011528;28;20414;-73
2023/09/22 05:34:34;;;;;;;7.85;6.22;;;;;;;14.34;96.47;99794.47;5024707;28;20040;-73
2023/09/22 05:37:03;;;;;;;8.18;5.78;;;;;;;14.30;96.50;99809.69;5028696;28;20029;-73
2023/09/22 05:39:28;;;;;;;9.70;6.90;;;;;;;14.25;96.43;99811.75;5025944;28;20037;-73
2023/09/22 05:41:54;;;;;;;;;;;;;;;14.23;96.46;99814.75;5008496;28;20033;-73
2023/09/22 05:44:20;;;;;;;8.15;6.28;;;;;;;14.22;96.83;99810.47;5011087;28;19917;-73
2023/09/22 05:46:45;;;;;;;;;;;;;;;14.19;96.91;99808.41;5025402;28;20029;-73
2023/09/22 05:49:15;;;;;;;10.25;6.88;;;;;;;14.18;96.75;99812.22;5024116;28;19924;-73
2023/09/22 05:51:42;;;;;;;10.15;8.00;;;;;;;14.20;97.24;99813.47;5038325;28;20034;-73
2023/09/22 05:54:08;;;;;;;;;;;;;;;14.27;97.71;99813.00;5024298;28;20048;-72
2023/09/22 05:56:35;;;;;;;11.50;8.50;;;;;;;14.32;97.75;99823.63;5022049;28;19920;-72
2023/09/22 05:59:01;;;;;;;12.45;9.00;;;;;;;14.39;97.70;99812.38;5007851;28;20393;-73
2023/09/22 06:01:27;;;;;;;;;;;;;;;14.44;97.73;99809.53;5009257;28;20037;-73
2023/09/22 06:03:53;;;;;;;13.40;9.25;;;;;;;14.45;97.67;99819.97;4995065;28;19925;-73
2023/09/22 06:06:19;;;;;;;;;;;;;;;14.51;97.70;99817.97;5022477;28;20033;-72
2023/09/22 06:08:46;;;;;;;11.65;8.95;;;;;;;14.54;97.39;99820.00;5033676;28;19999;-72
2023/09/22 06:11:13;;;;;;;11.73;9.45;;;;;;;14.61;97.18;99819.53;5026427;28;20132;-72
2023/09/22 06:13:40;;;;;;;14.18;8.93;;;;;;;14.69;96.90;99816.03;5026844;28;20030;-72
2023/09/22 06:16:06;;;;;;;13.07;9.40;;;;;;;14.77;96.57;99819.81;5023810;28;20076;-72
2023/09/22 06:18:32;;;;;;;;;;;;;;;14.85;96.55;99830.59;5045245;28;20487;-71
2023/09/22 06:20:59;;;;;;;10.00;7.70;;;;;;;14.93;95.98;99832.47;5028480;28;19916;-72
2023/09/22 06:23:27;;;;;;;12.10;8.85;;;;;;;14.99;95.41;99843.91;5026418;28;20128;-72
2023/09/22 06:25:56;;;;;;;10.00;8.18;;;;;;;15.09;95.13;99848.16;5026211;28;20052;-72
2023/09/22 06:28:22;;;;;;;10.48;9.00;;;;;;;15.14;94.94;99875.72;5023184;28;20041;-72
2023/09/22 06:30:49;;;;;;;;;;;;;;;15.15;94.22;99881.91;5027355;28;20517;-72
2023/09/22 06:33:16;;;;;;;10.38;8.10;;;;;;;15.12;93.17;99885.28;5026566;28;19967;-72
2023/09/22 06:35:43;;;;;;;10.30;7.72;;;;;;;15.12;93.17;99893.34;5012678;28;20036;-72
2023/09/22 06:38:10;;;;;;;10.60;7.90;;;;;;;15.09;93.75;99893.97;5025716;28;20068;-72
2023/09/22 06:40:37;;;;;;;11.52;7.88;;;;;;;15.09;93.05;99915.56;5021650;28;20072;-72
2023/09/22 06:43:08;;;;;;;13.23;7.43;;;;;;;15.10;92.94;99917.13;5039265;28;20029;-72
2023/09/22 06:45:36;;;;;;;12.00;8.70;;;;;;;15.12;92.71;99920.31;5007161;28;20577;-72
2023/09/22 06:48:05;;;;;;;9.90;7.78;;;;;;;15.14;92.09;99926.19;5007409;28;20041;-72
2023/09/22 06:50:35;;;;;;;10.10;7.95;;;;;;;15.16;92.98;99932.03;5022483;28;20045;-72
2023/09/22 06:53:00;;;;;;;9.93;7.60;;;;;;;15.20;92.16;99933.78;5008981;28;20025;-71
2023/09/22 06:55:26;;;;;;;;;;;;;;;15.20;91.88;99935.69;5023696;28;20091;-71
2023/09/22 06:57:52;;;;;;;8.57;6.68;;;;;;;15.22;91.85;99942.34;5023007;28;19917;-72
2023/09/22 07:00:18;;;;;;;8.80;7.45;;;;;;;15.23;91.70;99943.94;5025632;28;20029;-72
2023/09/22 07:02:48;;;;;;;9.10;6.47;;;;;;;15.26;92.29;99945.22;5020982;28;20036;-72
2023/09/22 07:05:14;;;;;;;9.90;6.70;;;;;;;15.30;91.92;99943.44;5026670;28;20037;-71
2023/09/22 07:07:40;;;;;;;8.75;6.97;;;;;;;15.35;91.82;99947.88;5023667;28;21572;-72
2023/09/22 07:10:09;;;;;;;;;;;;;;;15.34;91.48;99965.97;4994011;23;20108;-73
2023/09/22 07:12:38;;;;;;;7.95;6.53;;;;;;;15.35;91.51;99961.38;4975970;28;20339;-72
2023/09/22 07:15:06;;;;;;;7.65;6.25;;;;;;;15.35;91.74;99962.16;4984613;28;20168;-73
2023/09/22 07:17:33;;;;;;;6.07;5.47;;;;;;;15.33;91.11;99947.44;4971106;28;20525;-72
2023/09/22 07:20:01;;;;;;;7.47;6.10;;;;;;;15.38;91.88;99947.25;4978665;28;20050;-72
2023/09/22 07:22:32;;;;;;;8.05;6.18;;;;;;;15.39;91.19;99944.25;4996595;28;20404;-73
2023/09/22 07:24:59;;;;;;;8.05;5.47;;;;;;;15.45;90.83;99955.66;4974959;28;20035;-74
2023/09/22 07:27:25;;;;;;;6.78;5.40;;;;;;;15.49;89.84;99970.06;4983053;28;20133;-74
2023/09/22 07:29:51;;;;;;;5.93;5.32;;;;;;;15.49;90.45;99970.88;4979855;28;20113;-73
2023/09/22 07:32:17;;;;;;;;;;;;;;;15.50;90.82;99969.75;4964252;28;20125;-73
2023/09/22 07:34:43;;;;;;;5.65;4.50;;;;;;;15.48;88.16;99971.97;4977065;28;19921;-73
2023/09/22 07:37:12;;;;;;;;;;;;;;;15.45;86.99;99978.03;4967099;28;20117;-71
2023/09/22 07:39:38;;;;;;;8.02;4.57;;;;;;;15.46;87.79;99976.91;4983774;28;19940;-74
2023/09/22 07:42:04;;;;;;;5.30;4.10;;;;;;;15.47;87.29;99981.19;4986283;28;20038;-73
2023/09/22 07:44:31;;;;;;;4.93;4.20;;;;;;;15.51;86.85;99974.06;4949640;28;20034;-73
2023/09/22 07:47:00;;;;;;;5.47;4.07;;;;;;;15.59;87.35;99983.25;4997794;28;20058;-73
2023/09/22 07:49:26;;;;;;;5.70;4.43;;;;;;;15.68;89.15;99980.53;4976100;28;20617;-71
2023/09/22 07:51:53;;;;;;;7.28;4.50;;;;;;;15.74;86.55;99979.25;5000344;28;20038;-73
2023/09/22 07:54:24;;;;;;;6.72;4.47;;;;;;;15.80;85.36;99975.28;4981298;28;20184;-73
2023/09/22 07:56:51;;;;;;;6.47;4.40;;;;;;;15.81;85.29;99976.84;4998204;28;20776;-72
2023/09/22 07:59:16;;;;;;;8.10;5.30;;;;;;;15.76;84.92;99972.41;4956857;28;20030;-74
2023/09/22 08:01:43;;;;;;;6.47;4.68;;;;;;;15.75;84.13;99980.84;4975953;28;20034;-72
2023/09/22 08:04:10;;;;;;;6.22;4.10;;;;;;;15.80;85.12;99994.19;4962677;28;20045;-73
2023/09/22 08:06:36;;;;;;;5.03;4.40;;;;;;;15.84;84.97;99995.09;4959951;28;20177;-74
2023/09/22 08:09:05;;;;;;;5.07;3.53;;;;;;;15.92;85.76;100009.69;4964308;28;20033;-74
2023/09/22 08:11:33;;;;;;;4.65;3.83;;;;;;;15.95;85.76;100012.53;4962753;28;20050;-72
2023/09/22 08:14:01;;;;;;;4.88;3.28;;;;;;;15.98;85.24;100019.97;4989297;28;20047;-73
2023/09/22 08:16:28;;;;;;;6.32;3.88;;;;;;;15.97;85.39;100012.22;4985638;28;20038;-73
2023/09/22 08:18:54;;;;;;;;;;;;;;;15.92;84.47;100007.81;4945962;28;20069;-73
2023/09/22 08:21:25;;;;;;;5.63;3.45;;;;;;;15.91;85.03;100008.88;4958756;28;19921;-73
2023/09/22 08:23:55;;;;;;;6.63;3.83;;;;;;;15.93;83.91;100006.69;4973448;28;20062;-74
2023/09/22 08:26:23;;;;;;;6.07;3.42;;;;;;;15.94;84.05;100018.28;4982952;28;20064;-72
2023/09/22 08:28:50;;;;;;;7.70;3.83;;;;;;;15.95;83.36;100026.03;4984440;28;20038;-73
2023/09/22 08:31:15;;;;;;;4.68;3.15;;;;;;;15.98;83.66;100028.09;4985884;28;20453;-72
2023/09/22 08:33:41;;;;;;;;;;;;;;;16.07;84.70;100036.97;4969110;28;20829;-73
2023/09/22 08:36:08;;;;;;;7.38;3.97;;;;;;;16.11;84.06;100010.88;4991874;28;19924;-73
2023/09/22 08:38:35;;;;;;;5.20;3.80;;;;;;;16.19;83.14;99992.25;4989291;28;20034;-74
2023/09/22 08:41:05;;;;;;;5.10;3.38;;;;;;;16.30;82.76;99983.47;4986037;28;20038;-72
2023/09/22 08:43:32;;;;;;;3.75;3.15;;;;;;;16.40;83.50;99990.44;4984560;28;20058;-76
2023/09/22 08:46:00;;;;;;;4.57;2.80;;;;;;;16.56;83.20;99988.72;4966465;28;20046;-73
2023/09/22 08:48:28;;;;;;;4.90;3.13;;;;;;;16.67;82.41;99993.75;4976187;28;20047;-74
2023/09/22 08:50:54;;;;;;;4.72;3.10;;;;;;;16.78;81.40;100012.00;4978861;28;20041;-72
2023/09/22 08:53:20;;;;;;;3.63;2.85;;;;;;;16.71;79.40;100027.94;4983427;28;20034;-73
2023/09/22 08:55:50;;;;;;;3.72;2.55;;;;;;;16.69;81.32;100032.06;4980597;28;21218;-73
2023/09/22 08:58:18;;;;;;;4.18;2.78;;;;;;;16.71;80.59;100022.53;4976069;28;20042;-73
2023/09/22 09:00:51;;;;;;;4.38;3.03;;;;;;;16.82;80.22;100020.25;4978105;28;20109;-71
2023/09/22 09:03:21;;;;;;;4.20;2.80;;;;;;;16.90;79.98;100032.91;4979328;28;20042;-74
2023/09/22 09:05:49;;;;;;;4.70;2.40;;;;;;;16.89;78.23;100036.75;4975777;28;20046;-72
2023/09/22 09:08:23;;;;;;;5.53;2.90;;;;;;;16.90;77.99;100043.72;4979122;28;20030;-73
2023/09/22 09:10:50;;;;;;;6.43;2.63;;;;;;;16.76;77.16;100052.09;4965245;28;20042;-72
2023/09/22 09:13:18;;;;;;;4.95;2.83;;;;;;;16.65;76.74;100062.44;4979308;28;20038;-72
2023/09/22 09:15:57;;;;;;;3.53;2.33;;;;;;;16.58;77.49;100061.38;4980827;28;20053;-73
2023/09/22 09:18:29;;;;;;;5.65;2.30;;;;;;;16.58;77.35;100040.53;4983451;28;20042;-71
2023/09/22 09:21:07;;;;;;;4.05;2.60;;;;;;;16.60;77.71;100046.44;4989093;28;20034;-72
2023/09/22 09:23:32;;;;;;;4.65;2.33;;;;;;;16.60;77.72;100048.34;4969121;28;20049;-71
2023/09/22 09:25:58;;;;;;;4.40;2.00;;;;;;;16.58;77.66;100053.28;4962652;28;20038;-73
2023/09/22 09:28:26;;;;;;;4.40;2.30;;;;;;;16.57;77.21;100049.78;4985940;28;20030;-74
2023/09/22 09:30:54;;;;;;;4.35;2.40;;;;;;;16.60;79.55;100045.66;4978374;28;20030;-72
2023/09/22 09:33:22;;;;;;;4.18;2.10;;;;;;;16.59;78.44;100039.41;4975130;28;20057;-73
2023/09/22 09:35:48;;;;;;;3.50;2.33;;;;;;;16.65;78.11;100040.03;4981634;28;20053;-73
2023/09/22 09:38:14;;;;;;;3.50;1.80;;;;;;;16.71;80.57;100048.78;4981700;28;20034;-74
2023/09/22 09:40:40;;;;;;;3.25;2.30;;;;;;;16.72;78.34;100059.25;4977678;28;20085;-74
2023/09/22 09:43:10;;;;;;;2.35;1.77;;;;;;;16.76;77.76;100062.91;4938418;28;20035;-73
2023/09/22 09:45:42;;;;;;;2.30;1.88;;;;;;;16.78;77.30;100057.16;4977427;28;20579;-72
2023/09/22 09:48:10;;;;;;;4.30;2.10;;;;;;;16.78;76.01;100065.28;5003595;28;20038;-73
2023/09/22 09:50:38;;;;;;;6.10;2.42;;;;;;;16.80;76.12;100063.84;4965923;28;20030;-74
2023/09/22 09:53:16;;;;;;;3.42;1.80;;;;;;;16.79;75.73;100053.34;4963097;28;20038;-73
2023/09/22 09:55:43;;;;;;;3.83;2.25;;;;;;;16.84;76.01;100042.34;4953137;28;20046;-73
2023/09/22 09:58:11;;;;;;;3.85;2.05;;;;;;;16.96;76.37;100041.63;4982609;28;20124;-73
2023/09/22 10:00:39;;;;;;;4.63;2.05;;;;;;;17.07;76.22;100046.31;4993875;28;20056;-73
2023/09/22 10:03:08;;;;;;;2.97;1.70;;;;;;;17.17;76.62;100028.91;4966471;28;20399;-73
2023/09/22 10:05:34;;;;;;;4.15;1.70;;;;;;;17.30;75.48;100045.97;4979849;28;20038;-74
2023/09/22 10:08:00;;;;;;;3.63;2.05;;;;;;;17.30;74.00;100054.09;4964480;28;20054;-74
2023/09/22 10:10:28;;;;;;;2.92;1.90;;;;;;;17.35;73.33;100059.31;4980025;28;20034;-72
2023/09/22 10:12:54;;;;;;;3.88;1.40;;;;;;;17.32;72.78;100062.69;4984214;28;20108;-72
2023/09/22 10:15:56;;;;;;;4.55;2.05;;;;;;;17.26;72.71;100091.06;4980876;28;20033;-74
2023/09/22 10:18:44;;;;;;;2.70;1.50;;;;;;;17.16;72.83;100098.44;4988130;28;20031;-72
2023/09/22 10:21:33;;;;;;;2.83;1.42;;;;;;;17.12;73.55;100102.94;4978825;28;20073;-72
2023/09/22 10:24:26;;;;;;;3.67;1.45;;;;;;;17.09;74.04;100095.47;4980715;28;20038;-72
2023/09/22 10:26:55;;;;;;;3.00;1.40;;;;;;;17.02;73.41;100087.09;4992675;28;20038;-73
2023/09/22 10:29:36;;;;;;;3.95;1.40;;;;;;;17.03;74.10;100082.47;4983129;28;20414;-74
2023/09/22 10:32:19;;;;;;;;;;;;;;;17.06;73.54;100084.50;4982316;28;20124;-73
2023/09/22 10:35:05;;;;;;;3.72;1.70;;;;;;;17.12;74.33;100075.06;4985829;28;19968;-73
2023/09/22 10:37:35;;;;;;;1.95;1.13;;;;;;;17.29;74.46;100080.38;4989848;28;20557;-73
2023/09/22 10:40:12;;;;;;;4.80;1.48;;;;;;;17.36;73.30;100087.97;4984943;28;20407;-72
2023/09/22 10:42:43;;;;;;;2.92;1.48;;;;;;;17.51;72.23;100091.97;4964515;28;20034;-73
2023/09/22 10:45:10;;;;;;;4.57;1.60;;;;;;;17.66;72.36;100099.47;4979475;28;20112;-71
2023/09/22 10:47:49;;;;;;;3.40;1.60;;;;;;;17.85;73.07;100080.84;4994328;28;20068;-73
2023/09/22 10:50:19;;;;;;;3.88;1.45;;;;;;;17.94;72.00;100084.25;4977991;28;20046;-72
2023/09/22 10:52:56;;;;;;;4.07;1.50;;;;;;;17.99;71.38;100081.34;4984752;28;20046;-72
2023/09/22 10:55:30;;;;;;;2.75;1.27;;;;;;;17.92;71.52;100085.72;4990999;28;20129;-74
2023/09/22 10:57:57;;;;;;;7.90;1.60;;;;;;;17.84;72.53;100089.31;4963953;28;20034;-74
2023/09/22 11:00:23;;;;;;;3.83;1.67;;;;;;;17.87;73.85;100081.31;4979744;28;20776;-70
2023/09/22 11:02:49;;;;;;;3.53;1.77;;;;;;;17.95;75.56;100083.16;4980759;28;20038;-72
2023/09/22 11:05:16;;;;;;;6.75;1.55;;;;;;;18.08;72.99;100083.16;4980702;28;20049;-72
2023/09/22 11:07:42;;;;;;;3.75;1.80;;;;;;;18.28;72.34;100083.09;4978446;28;20045;-72
2023/09/22 11:10:18;;;;;;;4.68;2.13;;;;;;;18.50;69.29;100091.94;4977350;28;20038;-74
2023/09/22 11:12:54;;;;;;;4.25;1.80;;;;;;;18.50;67.97;100097.38;4997337;28;20100;-73
2023/09/22 11:15:21;;;;;;;4.05;1.70;;;;;;;18.69;68.48;100091.38;4995265;28;20049;-74
2023/09/22 11:17:47;;;;;;;5.70;2.08;;;;;;;18.84;66.88;100103.50;4979222;28;20041;-72
2023/09/22 11:20:27;;;;;;;6.05;2.20;;;;;;;18.89;67.79;100100.53;4965126;28;20057;-72
2023/09/22 11:22:55;;;;;;;4.55;2.15;;;;;;;18.92;67.44;100106.09;4984984;28;20446;-73
2023/09/22 11:25:22;;;;;;;4.20;1.50;;;;;;;18.81;64.59;100110.38;4975196;28;20042;-73
2023/09/22 11:27:50;;;;;;;3.15;2.20;;;;;;;18.87;65.64;100119.88;4980082;28;20092;-73
2023/09/22 11:30:27;;;;;;;6.07;2.38;;;;;;;18.96;65.65;100122.44;4966071;28;20065;-73
2023/09/22 11:32:54;;;;;;;5.53;2.42;;;;;;;19.08;66.39;100125.94;4977362;28;20050;-74
2023/09/22 11:35:51;;;;;;;3.40;1.95;;;;;;;18.84;64.45;100125.19;4976119;28;20030;-73
2023/09/22 11:38:29;;;;;;;3.05;1.88;;;;;;;18.61;64.35;100120.16;4974894;28;20043;-74
2023/09/22 11:41:04;;;;;;;5.20;2.45;;;;;;;18.50;65.71;100121.75;4965541;28;20080;-74